createdAt,value
2018-12-18T00:02:24.427Z,15.07
2018-12-18T00:05:07.461Z,13.97
2018-12-18T00:07:45.420Z,14.57
2018-12-18T00:10:19.118Z,13.60
2018-12-18T00:12:54.632Z,15.27
2018-12-18T00:15:36.891Z,14.33
2018-12-18T00:18:20.720Z,16.50
2018-12-18T00:20:56.471Z,16.23
2018-12-18T00:26:35.503Z,12.87
2018-12-18T00:29:08.774Z,13.93
2018-12-18T00:31:44.402Z,12.53
2018-12-18T00:34:20.522Z,13.07
2018-12-18T00:37:02.932Z,12.87
2018-12-18T00:39:36.563Z,12.97
2018-12-18T00:42:12.162Z,12.90
2018-12-18T00:47:58.306Z,12.13
2018-12-18T00:50:34.127Z,11.27
2018-12-18T00:53:17.820Z,11.47
2018-12-18T00:55:59.691Z,13.17
2018-12-18T00:58:33.092Z,10.43
2018-12-18T01:01:20.886Z,11.53
2018-12-18T01:04:08.746Z,11.63
2018-12-18T01:06:52.714Z,12.80
2018-12-18T01:09:28.318Z,12.77
2018-12-18T01:12:05.877Z,12.13
2018-12-18T01:14:51.941Z,11.73
2018-12-18T01:17:34.256Z,10.43
2018-12-18T01:20:10.044Z,12.03
2018-12-18T01:22:51.019Z,12.80
2018-12-18T01:25:26.606Z,11.77
2018-12-18T01:28:08.856Z,12.70
2018-12-18T01:30:48.660Z,12.20
2018-12-18T01:33:26.951Z,12.17
2018-12-18T01:36:06.907Z,11.50
2018-12-18T01:38:40.186Z,12.73
2018-12-18T01:41:15.956Z,12.43
2018-12-18T01:43:48.022Z,11.57
2018-12-18T01:46:23.493Z,12.10
2018-12-18T01:48:57.525Z,10.37
2018-12-18T01:51:33.107Z,10.97
2018-12-18T01:54:09.962Z,12.20
2018-12-18T01:56:43.632Z,10.40
2018-12-18T01:59:14.893Z,11.57
2018-12-18T02:01:46.548Z,11.57
2018-12-18T02:04:22.009Z,10.37
2018-12-18T02:07:10.547Z,10.43
2018-12-18T02:09:43.845Z,8.67
2018-12-18T02:12:21.912Z,9.17
2018-12-18T02:14:57.591Z,9.20
2018-12-18T02:17:34.023Z,8.00
2018-12-18T02:20:21.873Z,9.17
2018-12-18T02:22:55.400Z,10.53
2018-12-18T02:25:31.232Z,9.57
2018-12-18T02:28:16.239Z,8.73
2018-12-18T02:31:03.978Z,11.20
2018-12-18T02:33:51.986Z,12.47
2018-12-18T02:36:33.975Z,10.47
2018-12-18T02:39:17.915Z,7.37
2018-12-18T02:41:53.681Z,9.33
2018-12-18T02:44:35.842Z,7.70
2018-12-18T02:47:11.404Z,8.37
2018-12-18T02:49:45.419Z,6.20
2018-12-18T02:52:24.813Z,7.23
2018-12-18T02:55:01.003Z,6.80
2018-12-18T02:57:36.918Z,7.50
2018-12-18T03:00:13.521Z,6.53
2018-12-18T03:02:49.219Z,6.90
2018-12-18T03:05:26.699Z,6.67
2018-12-18T03:08:06.278Z,6.43
2018-12-18T03:10:43.738Z,5.67
2018-12-18T03:13:15.248Z,5.73
2018-12-18T03:15:50.878Z,5.97
2018-12-18T03:18:22.618Z,6.70
2018-12-18T03:20:58.075Z,5.43
2018-12-18T03:23:40.421Z,5.50
2018-12-18T03:26:18.472Z,5.17
2018-12-18T03:28:50.207Z,6.40
2018-12-18T03:31:30.906Z,6.03
2018-12-18T03:34:04.355Z,6.37
2018-12-18T03:36:39.775Z,6.60
2018-12-18T03:39:16.194Z,9.90
2018-12-18T03:41:54.279Z,7.57
2018-12-18T03:44:36.685Z,6.20
2018-12-18T03:47:20.633Z,5.90
2018-12-18T03:49:58.967Z,8.23
2018-12-18T03:52:46.866Z,6.47
2018-12-18T03:55:22.587Z,5.77
2018-12-18T03:58:00.314Z,6.40
2018-12-18T04:00:42.629Z,6.80
2018-12-18T04:03:30.698Z,5.37
2018-12-18T04:06:06.565Z,4.97
2018-12-18T04:08:40.330Z,4.33
2018-12-18T04:11:31.121Z,5.77
2018-12-18T04:14:13.307Z,8.07
2018-12-18T04:17:01.279Z,10.53
2018-12-18T04:19:34.853Z,10.63
2018-12-18T04:22:22.648Z,9.27
2018-12-18T04:24:58.344Z,10.17
2018-12-18T04:27:38.339Z,10.10
2018-12-18T04:30:14.447Z,7.90
2018-12-18T04:32:51.837Z,9.30
2018-12-18T04:35:33.768Z,9.33
2018-12-18T04:38:12.885Z,9.87
2018-12-18T04:40:49.065Z,11.40
2018-12-18T04:43:27.312Z,10.37
2018-12-18T04:46:03.498Z,11.27
2018-12-18T04:48:43.593Z,9.33
2018-12-18T04:51:19.676Z,10.30
2018-12-18T04:54:03.985Z,8.63
2018-12-18T04:56:47.997Z,11.20
2018-12-18T04:59:26.369Z,11.00
2018-12-18T05:02:03.987Z,8.90
2018-12-18T05:04:40.477Z,9.33
2018-12-18T05:07:16.628Z,9.87
2018-12-18T05:09:52.794Z,10.47
2018-12-18T05:12:45.126Z,11.47
2018-12-18T05:15:20.998Z,8.40
2018-12-18T05:17:57.197Z,10.90
2018-12-18T05:23:12.344Z,12.47
2018-12-18T05:25:54.611Z,13.70
2018-12-18T05:28:40.887Z,15.77
2018-12-18T05:31:22.776Z,15.60
2018-12-18T05:34:04.669Z,12.67
2018-12-18T05:36:47.216Z,11.60
2018-12-18T05:39:27.300Z,15.87
2018-12-18T05:42:03.447Z,12.00
2018-12-18T05:44:35.395Z,11.43
2018-12-18T05:47:15.162Z,9.30
2018-12-18T05:49:49.093Z,9.37
2018-12-18T05:52:28.666Z,9.40
2018-12-18T05:55:04.917Z,10.07
2018-12-18T05:57:42.955Z,9.47
2018-12-18T06:00:25.323Z,9.47
2018-12-18T06:03:02.414Z,10.33
2018-12-18T06:05:44.886Z,9.03
2018-12-18T06:08:18.579Z,9.93
2018-12-18T06:11:03.140Z,9.00
2018-12-18T06:13:43.648Z,9.00
2018-12-18T06:16:23.864Z,11.97
2018-12-18T06:19:07.482Z,10.80
2018-12-18T06:21:38.904Z,10.17
2018-12-18T06:24:15.228Z,9.30
2018-12-18T06:26:57.639Z,10.50
2018-12-18T06:29:33.528Z,10.13
2018-12-18T06:32:07.566Z,9.70
2018-12-18T06:34:43.503Z,9.20
2018-12-18T06:37:17.307Z,10.37
2018-12-18T06:39:53.135Z,11.20
2018-12-18T06:42:40.189Z,10.57
2018-12-18T06:45:32.326Z,11.03
2018-12-18T06:48:12.315Z,8.97
2018-12-18T06:50:50.596Z,9.03
2018-12-18T06:53:25.996Z,11.53
2018-12-18T06:56:04.100Z,14.07
2018-12-18T06:58:46.296Z,12.10
2018-12-18T07:01:19.796Z,15.38
2018-12-18T07:04:08.242Z,12.10
2018-12-18T07:06:50.215Z,11.60
2018-12-18T07:09:34.140Z,10.50
2018-12-18T07:12:14.124Z,11.63
2018-12-18T07:14:52.446Z,12.37
2018-12-18T07:17:40.943Z,9.93
2018-12-18T07:20:16.596Z,11.33
2018-12-18T07:22:56.636Z,11.30
2018-12-18T07:25:32.480Z,10.93
2018-12-18T07:28:12.442Z,10.17
2018-12-18T07:30:48.640Z,11.93
2018-12-18T07:33:30.840Z,23.50
2018-12-18T07:36:14.111Z,19.37
2018-12-18T07:38:53.847Z,23.63
2018-12-18T07:41:36.444Z,26.13
2018-12-18T07:44:16.375Z,37.30
2018-12-18T07:46:56.196Z,29.93
2018-12-18T07:49:32.354Z,27.10
2018-12-18T07:52:05.644Z,27.57
2018-12-18T07:54:45.911Z,31.23
2018-12-18T07:57:22.304Z,20.37
2018-12-18T08:00:02.288Z,19.97
2018-12-18T08:02:34.146Z,13.73
2018-12-18T08:05:11.651Z,11.73
2018-12-18T08:07:48.343Z,12.47
2018-12-18T08:10:20.435Z,11.37
2018-12-18T08:12:59.933Z,11.10
2018-12-18T08:15:37.633Z,10.70
2018-12-18T08:18:21.520Z,10.53
2018-12-18T08:20:55.739Z,10.23
2018-12-18T08:23:38.956Z,11.03
2018-12-18T08:26:14.963Z,12.37
2018-12-18T08:28:55.313Z,17.17
2018-12-18T08:31:29.308Z,13.30
2018-12-18T08:34:02.703Z,13.70
2018-12-18T08:36:38.371Z,16.13
2018-12-18T08:39:12.379Z,15.87
2018-12-18T08:41:57.685Z,14.93
2018-12-18T08:44:33.387Z,14.83
2018-12-18T08:47:13.530Z,15.50
2018-12-18T08:49:45.456Z,15.70
2018-12-18T08:52:21.902Z,17.83
2018-12-18T08:54:57.915Z,18.83
2018-12-18T08:57:29.952Z,17.70
2018-12-18T09:00:01.361Z,18.27
2018-12-18T09:02:40.763Z,16.27
2018-12-18T09:05:21.814Z,17.67
2018-12-18T09:07:57.931Z,13.97
2018-12-18T09:10:40.232Z,16.93
2018-12-18T09:13:24.255Z,18.87
2018-12-18T09:16:10.452Z,16.47
2018-12-18T09:18:42.252Z,17.00
2018-12-18T09:21:19.807Z,15.23
2018-12-18T09:24:02.041Z,12.83
2018-12-18T09:26:45.225Z,10.97
2018-12-18T09:29:21.683Z,11.83
2018-12-18T09:31:57.511Z,12.27
2018-12-18T09:34:39.569Z,12.57
2018-12-18T09:37:16.151Z,11.80
2018-12-18T09:39:49.881Z,12.80
2018-12-18T09:42:26.280Z,10.33
2018-12-18T09:45:08.469Z,12.13
2018-12-18T09:47:56.413Z,11.20
2018-12-18T09:50:32.064Z,11.13
2018-12-18T09:53:20.197Z,11.37
2018-12-18T09:55:56.287Z,11.50
2018-12-18T09:58:27.805Z,10.07
2018-12-18T10:01:03.413Z,10.33
2018-12-18T10:03:45.981Z,11.13
2018-12-18T10:06:21.625Z,9.53
2018-12-18T10:08:56.197Z,10.57
2018-12-18T10:11:38.513Z,37.47
2018-12-18T10:14:14.501Z,21.53
2018-12-18T10:16:50.356Z,12.67
2018-12-18T10:19:26.276Z,9.50
2018-12-18T10:22:06.349Z,10.47
2018-12-18T10:24:43.492Z,9.97
2018-12-18T10:27:19.731Z,10.00
2018-12-18T10:29:52.849Z,12.10
2018-12-18T10:32:26.381Z,9.30
2018-12-18T10:34:59.510Z,11.63
2018-12-18T10:37:35.958Z,11.80
2018-12-18T10:40:18.496Z,6.57
2018-12-18T10:42:55.920Z,4.10
2018-12-18T10:45:32.848Z,3.50
2018-12-18T10:48:06.840Z,2.90
2018-12-18T10:50:54.634Z,3.40
2018-12-18T10:53:30.336Z,3.87
2018-12-18T10:56:08.275Z,2.93
2018-12-18T10:58:55.000Z,2.83
2018-12-18T11:01:40.058Z,3.53
2018-12-18T11:04:19.401Z,3.03
2018-12-18T11:06:54.803Z,2.90
2018-12-18T11:09:30.787Z,2.90
2018-12-18T11:12:17.293Z,2.73
2018-12-18T11:14:59.557Z,3.07
2018-12-18T11:17:45.660Z,4.17
2018-12-18T11:20:24.272Z,2.93
2018-12-18T11:23:00.212Z,3.77
2018-12-18T11:25:36.460Z,3.10
2018-12-18T11:28:12.479Z,2.93
2018-12-18T11:30:50.635Z,2.90
2018-12-18T11:33:26.059Z,3.17
2018-12-18T11:36:02.188Z,3.20
2018-12-18T11:38:40.351Z,3.00
2018-12-18T11:41:16.478Z,3.63
2018-12-18T11:44:04.885Z,4.33
2018-12-18T11:46:43.434Z,3.10
2018-12-18T11:49:16.799Z,2.90
2018-12-18T11:52:00.377Z,3.10
2018-12-18T11:54:37.932Z,2.93
2018-12-18T11:57:13.549Z,3.60
2018-12-18T11:59:46.951Z,3.10
2018-12-18T12:02:22.540Z,2.60
2018-12-18T12:05:00.783Z,3.13
2018-12-18T12:07:39.833Z,3.17
2018-12-18T12:10:21.642Z,3.40
2018-12-18T12:12:55.133Z,3.43
2018-12-18T12:15:30.563Z,4.17
2018-12-18T12:18:06.565Z,4.77
2018-12-18T12:20:42.060Z,3.93
2018-12-18T12:23:14.055Z,4.13
2018-12-18T12:25:53.789Z,3.53
2018-12-18T12:28:27.799Z,3.70
2018-12-18T12:31:05.638Z,4.40
2018-12-18T12:33:41.429Z,3.90
2018-12-18T12:36:17.576Z,5.20
2018-12-18T12:38:54.105Z,7.27
2018-12-18T12:41:27.520Z,4.67
2018-12-18T12:44:07.144Z,4.30
2018-12-18T12:46:55.467Z,4.07
2018-12-18T12:49:45.600Z,3.73
2018-12-18T12:52:34.040Z,2.93
2018-12-18T12:55:19.973Z,3.10
2018-12-18T12:57:55.805Z,3.20
2018-12-18T13:00:34.051Z,4.87
2018-12-18T13:03:10.260Z,3.77
2018-12-18T13:05:52.769Z,3.63
2018-12-18T13:08:30.672Z,4.27
2018-12-18T13:11:08.740Z,2.63
2018-12-18T13:13:46.871Z,3.70
2018-12-18T13:16:23.109Z,2.77
2018-12-18T13:19:01.261Z,2.73
2018-12-18T13:21:39.757Z,3.40
2018-12-18T13:24:17.927Z,2.90
2018-12-18T13:26:53.993Z,3.10
2018-12-18T13:29:28.219Z,2.67
2018-12-18T13:32:15.543Z,4.13
2018-12-18T13:34:51.500Z,4.00
2018-12-18T13:37:25.130Z,3.00
2018-12-18T13:40:02.982Z,2.23
2018-12-18T13:42:38.699Z,3.13
2018-12-18T13:45:14.675Z,3.30
2018-12-18T13:47:53.397Z,2.87
2018-12-18T13:50:35.316Z,2.60
2018-12-18T13:53:11.268Z,3.23
2018-12-18T13:55:44.459Z,3.10
2018-12-18T13:58:18.802Z,2.63
2018-12-18T14:00:54.597Z,3.57
2018-12-18T14:03:28.548Z,3.20
2018-12-18T14:06:10.544Z,3.80
2018-12-18T14:08:52.480Z,5.20
2018-12-18T14:11:40.557Z,4.40
2018-12-18T14:14:18.642Z,3.60
2018-12-18T14:16:54.940Z,3.97
2018-12-18T14:19:37.049Z,3.43
2018-12-18T14:22:13.044Z,5.03
2018-12-18T14:24:55.452Z,3.27
2018-12-18T14:27:43.295Z,3.87
2018-12-18T14:30:19.308Z,3.33
2018-12-18T14:32:59.067Z,3.63
2018-12-18T14:35:38.384Z,3.73
2018-12-18T14:38:14.512Z,4.73
2018-12-18T14:40:56.863Z,5.23
2018-12-18T14:43:36.759Z,5.20
2018-12-18T14:46:25.038Z,11.33
2018-12-18T14:49:00.920Z,10.20
2018-12-18T14:51:39.667Z,7.80
2018-12-18T14:54:13.211Z,7.17
2018-12-18T14:56:49.501Z,10.47
2018-12-18T14:59:23.531Z,13.30
2018-12-18T15:01:59.725Z,10.73
2018-12-18T15:04:43.082Z,9.63
2018-12-18T15:07:18.896Z,10.47
2018-12-18T15:09:52.863Z,6.30
2018-12-18T15:12:28.865Z,5.47
2018-12-18T15:15:08.584Z,4.50
2018-12-18T15:17:45.616Z,5.07
2018-12-18T15:20:21.670Z,6.73
2018-12-18T15:22:55.687Z,4.17
2018-12-18T15:25:31.204Z,5.80
2018-12-18T15:28:06.685Z,4.93
2018-12-18T15:30:40.613Z,4.63
2018-12-18T15:33:15.943Z,5.00
2018-12-18T15:35:48.099Z,4.30
2018-12-18T15:38:29.739Z,5.60
2018-12-18T15:41:05.488Z,4.63
2018-12-18T15:43:41.573Z,3.77
2018-12-18T15:46:19.715Z,3.87
2018-12-18T15:49:08.266Z,5.10
2018-12-18T15:51:44.099Z,5.87
2018-12-18T15:54:25.645Z,4.70
2018-12-18T15:57:03.356Z,4.57
2018-12-18T15:59:37.147Z,3.80
2018-12-18T16:02:10.303Z,3.47
2018-12-18T16:04:45.767Z,5.53
2018-12-18T16:07:21.931Z,3.90
2018-12-18T16:09:55.724Z,4.07
2018-12-18T16:12:35.096Z,5.90
2018-12-18T16:15:17.532Z,7.37
2018-12-18T16:17:53.859Z,9.27
2018-12-18T16:20:30.068Z,7.00
2018-12-18T16:23:05.932Z,7.77
2018-12-18T16:25:41.900Z,4.30
2018-12-18T16:28:21.975Z,3.30
2018-12-18T16:31:05.414Z,2.90
2018-12-18T16:33:49.639Z,5.53
2018-12-18T16:36:23.111Z,2.93
2018-12-18T16:38:59.404Z,4.23
2018-12-18T16:41:33.204Z,3.87
2018-12-18T16:44:08.824Z,5.70
2018-12-18T16:46:44.992Z,8.20
2018-12-18T16:49:21.144Z,6.37
2018-12-18T16:51:55.116Z,6.50
2018-12-18T16:54:32.696Z,6.30
2018-12-18T16:57:15.011Z,6.50
2018-12-18T16:59:56.985Z,8.90
2018-12-18T17:02:35.999Z,10.37
2018-12-18T17:05:18.185Z,9.70
2018-12-18T17:07:53.919Z,8.20
2018-12-18T17:10:30.164Z,6.20
2018-12-18T17:13:06.442Z,6.27
2018-12-18T17:15:47.573Z,4.27
2018-12-18T17:18:21.047Z,4.97
2018-12-18T17:20:56.476Z,5.93
2018-12-18T17:23:31.590Z,6.17
2018-12-18T17:26:06.484Z,8.30
2018-12-18T17:28:39.360Z,16.20
2018-12-18T17:31:16.932Z,10.73
2018-12-18T17:33:53.013Z,14.37
2018-12-18T17:36:24.775Z,18.50
2018-12-18T17:38:57.964Z,20.27
2018-12-18T17:56:44.197Z,17.07
2018-12-18T17:59:19.495Z,12.73
2018-12-18T18:01:55.547Z,11.70
2018-12-18T18:04:31.456Z,14.20
2018-12-18T18:07:07.499Z,17.63
2018-12-18T18:09:43.653Z,14.30
2018-12-18T18:12:29.889Z,11.77
2018-12-18T18:15:09.598Z,12.50
2018-12-18T18:17:49.104Z,13.00
2018-12-18T18:20:26.154Z,10.37
2018-12-18T18:23:01.007Z,7.30
2018-12-18T18:25:35.908Z,7.23
2018-12-18T18:28:11.427Z,6.03
2018-12-18T18:30:46.733Z,6.87
2018-12-18T18:33:21.734Z,8.20
2018-12-18T18:35:56.595Z,9.17
2018-12-18T18:38:29.235Z,9.33
2018-12-18T18:41:04.427Z,9.10
2018-12-18T18:43:39.563Z,7.47
2018-12-18T18:46:14.599Z,9.63
2018-12-18T18:48:47.446Z,13.83
2018-12-18T18:51:22.893Z,70.73
2018-12-18T18:56:45.835Z,28.13
2018-12-18T18:59:19.219Z,71.87
2018-12-18T19:01:58.453Z,50.00
2018-12-18T19:04:34.739Z,17.13
2018-12-18T19:07:08.086Z,17.33
2018-12-18T19:09:46.887Z,46.60
2018-12-18T19:12:22.294Z,36.80
2018-12-18T19:15:04.537Z,25.07
2018-12-18T19:17:46.425Z,12.40
2018-12-18T19:20:18.936Z,12.03
2018-12-18T19:22:49.130Z,11.17
2018-12-18T19:25:19.481Z,12.50
2018-12-18T19:27:54.585Z,17.37
2018-12-18T19:30:34.601Z,11.53
2018-12-18T19:33:11.150Z,12.07
2018-12-18T19:35:46.730Z,9.57
2018-12-18T19:38:27.795Z,10.87
2018-12-18T19:41:10.632Z,10.33
2018-12-18T19:43:45.940Z,11.40
2018-12-18T19:46:21.457Z,12.90
2018-12-18T19:49:00.235Z,11.47
2018-12-18T19:51:35.343Z,11.13
2018-12-18T19:54:10.335Z,11.37
2018-12-18T19:56:43.213Z,12.67
2018-12-18T19:59:16.277Z,10.87
2018-12-18T20:01:51.700Z,13.07
2018-12-18T20:04:26.851Z,11.13
2018-12-18T20:07:02.005Z,10.93
2018-12-18T20:09:34.662Z,12.50
2018-12-18T20:12:20.196Z,11.83
2018-12-18T20:14:57.829Z,12.97
2018-12-18T20:17:34.883Z,12.90
2018-12-18T20:20:08.131Z,13.60
2018-12-18T20:22:42.924Z,12.40
2018-12-18T20:25:19.180Z,12.60
2018-12-18T20:27:58.039Z,13.47
2018-12-18T20:30:39.255Z,13.53
2018-12-18T20:33:16.296Z,11.70
2018-12-18T20:35:51.499Z,13.07
2018-12-18T20:38:24.192Z,13.67
2018-12-18T20:40:59.409Z,12.67
2018-12-18T20:43:34.652Z,12.00
2018-12-18T20:46:09.783Z,16.30
2018-12-18T20:48:42.670Z,12.70
2018-12-18T20:51:19.939Z,14.33
2018-12-18T20:54:00.881Z,52.07
2018-12-18T20:56:33.422Z,15.83
2018-12-18T20:59:14.625Z,12.13
2018-12-18T21:01:49.432Z,13.10
2018-12-18T21:07:13.610Z,13.27
2018-12-18T21:09:49.807Z,13.37
2018-12-18T21:12:24.763Z,12.47
2018-12-18T21:15:00.847Z,13.77
2018-12-18T21:17:36.751Z,12.50
2018-12-18T21:20:11.606Z,12.47
2018-12-18T21:22:48.654Z,13.17
2018-12-18T21:25:24.090Z,26.75
2018-12-18T21:28:00.739Z,19.87
2018-12-18T21:30:34.054Z,16.10
2018-12-18T21:33:05.359Z,18.60
2018-12-18T21:35:40.759Z,17.80
2018-12-18T21:38:17.923Z,16.40
2018-12-18T21:40:57.140Z,15.63
2018-12-18T21:43:32.380Z,13.93
2018-12-18T21:48:57.420Z,13.10
2018-12-18T21:51:32.140Z,12.70
2018-12-18T21:54:17.039Z,15.17
2018-12-18T21:56:47.995Z,14.70
2018-12-18T21:59:25.472Z,14.07
2018-12-18T22:04:51.195Z,13.17
2018-12-18T22:07:32.360Z,13.27
2018-12-18T22:10:09.076Z,13.77
2018-12-18T22:12:46.052Z,14.53
2018-12-18T22:15:23.119Z,14.07
2018-12-18T22:17:58.207Z,14.70
2018-12-18T22:20:35.275Z,14.20
2018-12-18T22:23:05.962Z,15.40
2018-12-18T22:25:41.338Z,15.00
2018-12-18T22:28:16.413Z,13.27
2018-12-18T22:30:53.540Z,14.23
2018-12-18T22:33:30.633Z,16.63
2018-12-18T22:36:05.428Z,14.70
2018-12-18T22:38:46.220Z,11.90
2018-12-18T22:41:22.726Z,13.40
2018-12-18T22:43:56.107Z,14.80
2018-12-18T22:46:31.405Z,11.93
2018-12-18T22:49:08.439Z,13.47
2018-12-18T22:51:39.211Z,14.00
2018-12-18T22:54:16.007Z,17.60
2018-12-18T22:56:52.803Z,14.90
2018-12-18T22:59:27.777Z,14.83
2018-12-18T23:02:06.935Z,13.67
2018-12-18T23:04:40.518Z,14.03
2018-12-18T23:14:57.531Z,15.07
2018-12-18T23:17:38.605Z,13.13
2018-12-18T23:20:15.640Z,12.17
2018-12-18T23:22:52.827Z,14.63
2018-12-18T23:25:27.511Z,12.93
2018-12-18T23:28:04.523Z,13.10
2018-12-18T23:30:39.456Z,13.57
2018-12-18T23:33:14.395Z,11.73
2018-12-18T23:35:50.399Z,13.33
2018-12-18T23:38:31.197Z,11.60
2018-12-18T23:41:06.040Z,14.20
2018-12-18T23:43:43.235Z,13.50
2018-12-18T23:46:18.447Z,14.07
2018-12-18T23:48:52.324Z,13.23
2018-12-18T23:51:27.629Z,13.53
2018-12-18T23:53:58.198Z,14.37
2018-12-18T23:56:35.557Z,11.33
2018-12-18T23:59:13.548Z,13.67
